K.pluto — 3EYQ3 — position and weather

sailwx.info

Track history (hours):
 
Tides and Currents Weather Stations Pressure Air Temp Water Temp Dewpoint Dewpoint Depression Visibility Wind Speed Wind Dir Waves Ship Positions

K.pluto

Last reported at 2017-Apr-15 05:36 UTC. Time now 2017-Apr-23 21:46 UTC.
Position N 01°58' E 102°15'.
Warning: this ship's position is 8 days out of date.

Length 170 m; draft 9.9 m.

Type: Cargo ship. MMSI: 373504000.

Date/timePositionNaut miles runAvg speedWind from/ knotsBaromVisibWave heightAir tempDewpointWater temp
2017-Apr-15 05:36N 01°58' E 102°15'311.2
2017-Apr-15 05:20N 01°56' E 102°17'411.2
2017-Apr-15 04:59N 01°54' E 102°21'610.7
2017-Apr-15 04:23N 01°51' E 102°27'410.4
2017-Apr-15 04:00N 01°50' E 102°30'8 9.9
2017-Apr-15 03:09N 01°46' E 102°38'2 9.9
2017-Apr-15 03:00N 01°45' E 102°39'5011.1
2017-Apr-14 22:30N 01°17' E 103°21'711.7
2017-Apr-14 21:56N 01°14' E 103°26'511.4
2017-Apr-14 21:30N 01°13' E 103°31'510.8
2017-Apr-14 21:00N 01°12' E 103°36'510.1
2017-Apr-14 20:30N 01°10' E 103°41'4 8.9
2017-Apr-14 20:00N 01°09' E 103°45'5 9.4
2017-Apr-14 19:30N 01°11' E 103°50'5 9.7
2017-Apr-14 19:00N 01°13' E 103°54'510.4
2017-Apr-14 18:30N 01°15' E 103°59'610.6
2017-Apr-14 17:56N 01°16' E 104°05'  
Track history (hours):
 
Tides and Currents Weather Stations Pressure Air Temp Water Temp Dewpoint Dewpoint Depression Visibility Wind Speed Wind Dir Waves Ship Positions

K.pluto

Last reported at 2017-Apr-15 05:36 UTC. Time now 2017-Apr-23 21:46 UTC.
Position N 01°58' E 102°15'.
Warning: this ship's position is 8 days out of date.

Length 170 m; draft 9.9 m.

Type: Cargo ship. MMSI: 373504000.

Date/timePositionNaut miles runAvg speedWind from/ knotsBaromVisibWave heightAir tempDewpointWater temp
2017-Apr-15 05:36N 01°58' E 102°15'311.2
2017-Apr-15 05:20N 01°56' E 102°17'411.2
2017-Apr-15 04:59N 01°54' E 102°21'610.7
2017-Apr-15 04:23N 01°51' E 102°27'410.4
2017-Apr-15 04:00N 01°50' E 102°30'8 9.9
2017-Apr-15 03:09N 01°46' E 102°38'2 9.9
2017-Apr-15 03:00N 01°45' E 102°39'5011.1
2017-Apr-14 22:30N 01°17' E 103°21'711.7
2017-Apr-14 21:56N 01°14' E 103°26'511.4
2017-Apr-14 21:30N 01°13' E 103°31'510.8
2017-Apr-14 21:00N 01°12' E 103°36'510.1
2017-Apr-14 20:30N 01°10' E 103°41'4 8.9
2017-Apr-14 20:00N 01°09' E 103°45'5 9.4
2017-Apr-14 19:30N 01°11' E 103°50'5 9.7
2017-Apr-14 19:00N 01°13' E 103°54'510.4
2017-Apr-14 18:30N 01°15' E 103°59'610.6
2017-Apr-14 17:56N 01°16' E 104°05'  

Dump ship's entire track history